Time;durP1;ratioP1;P1;durP2;ratioP2;P2;SDS_P1;SDS_P2;PMS_P1;PMS_P2;Temp;Humidity;BMP_temperature;BMP_pressure;BME280_temperature;BME280_humidity;BME280_pressure;Samples;Min_cycle;Max_cycle;Signal;HPM_P1;HPM_P2
2023/06/04 00:00:16;;;;;;;1.30;0.70;;;;;;;15.88;51.28;102297.81;5073161;27;100418;-28
2023/06/04 00:02:41;;;;;;;0.60;0.50;;;;;;;15.83;51.64;102295.38;5073124;27;99115;-28
2023/06/04 00:05:07;;;;;;;1.95;0.47;;;;;;;15.86;50.87;102299.78;5071920;27;96680;-28
2023/06/04 00:07:32;;;;;;;1.73;0.85;;;;;;;15.78;50.96;102291.13;5054961;27;96828;-27
2023/06/04 00:09:58;;;;;;;1.90;0.63;;;;;;;15.75;51.21;102297.66;5072889;27;105248;-27
2023/06/04 00:12:23;;;;;;;1.08;0.68;;;;;;;15.69;51.20;102298.91;5073183;27;109485;-27
2023/06/04 00:14:48;;;;;;;0.50;0.40;;;;;;;15.65;51.58;102289.13;5072299;27;114384;-27
2023/06/04 00:17:14;;;;;;;1.10;0.60;;;;;;;15.64;51.17;102295.56;5072973;27;96779;-29
2023/06/04 00:19:40;;;;;;;0.90;0.47;;;;;;;15.58;51.52;102293.19;5072646;27;97852;-27
2023/06/04 00:22:06;;;;;;;2.70;0.93;;;;;;;15.53;51.69;102289.84;5054841;27;100776;-27
2023/06/04 00:24:31;;;;;;;1.85;0.73;;;;;;;15.45;52.05;102297.63;5072955;27;96682;-29
2023/06/04 00:26:58;;;;;;;1.58;0.50;;;;;;;15.44;52.25;102301.31;5073266;27;96903;-27
2023/06/04 00:29:23;;;;;;;2.05;0.70;;;;;;;15.44;52.12;102301.31;5053940;27;101524;-27
2023/06/04 00:31:48;;;;;;;0.70;0.57;;;;;;;15.42;51.75;102295.06;5072709;27;97407;-28
2023/06/04 00:34:14;;;;;;;1.38;0.43;;;;;;;15.35;52.40;102285.47;5072855;27;96769;-28
2023/06/04 00:36:40;;;;;;;1.52;0.60;;;;;;;15.34;52.26;102294.66;5072822;27;96855;-27
2023/06/04 00:39:05;;;;;;;0.85;0.50;;;;;;;15.36;52.13;102303.63;5054234;27;101465;-28
2023/06/04 00:41:31;;;;;;;3.70;0.60;;;;;;;15.29;52.37;102297.63;5072637;27;97974;-29
2023/06/04 00:43:56;;;;;;;1.30;0.73;;;;;;;15.25;52.52;102304.25;5072742;27;96717;-27
2023/06/04 00:46:26;;;;;;;0.75;0.47;;;;;;;15.29;52.18;102298.50;5073027;27;96854;-27
2023/06/04 00:48:52;;;;;;;1.67;0.80;;;;;;;15.26;52.49;102298.69;5054272;27;101433;-27
2023/06/04 00:51:18;;;;;;;0.95;0.60;;;;;;;15.21;53.22;102303.56;5072598;27;98377;-27
2023/06/04 00:53:44;;;;;;;0.95;0.60;;;;;;;15.18;52.10;102292.81;5053630;27;96728;-27
2023/06/04 00:56:09;;;;;;;1.83;0.90;;;;;;;15.12;52.75;102295.88;5073089;27;96784;-28
2023/06/04 00:58:39;;;;;;;0.93;0.60;;;;;;;15.07;53.45;102293.44;5072480;27;99544;-27
2023/06/04 01:01:10;;;;;;;1.50;0.35;;;;;;;15.08;52.60;102305.22;5054176;27;101109;-28
2023/06/04 01:03:41;;;;;;;1.00;0.50;;;;;;;15.03;52.69;102296.41;5054183;27;96672;-28
2023/06/04 01:06:21;;;;;;;0.98;0.52;;;;;;;14.93;53.04;102296.06;5054090;27;96826;-28
2023/06/04 01:08:54;;;;;;;0.80;0.43;;;;;;;14.93;53.10;102298.78;5053891;27;101446;-27
2023/06/04 01:11:31;;;;;;;0.50;0.47;;;;;;;14.90;53.52;102309.88;5054488;27;100894;-27
2023/06/04 01:13:56;;;;;;;1.33;0.70;;;;;;;14.83;53.42;102301.16;5054130;27;96578;-30
2023/06/04 01:16:22;;;;;;;0.98;0.60;;;;;;;14.87;53.55;102304.56;5073722;27;96799;-27
2023/06/04 01:18:48;;;;;;;0.90;0.63;;;;;;;14.93;53.69;102311.56;5075215;27;97974;-28
2023/06/04 01:21:18;;;;;;;0.95;0.50;;;;;;;14.93;52.95;102312.44;5075718;27;99049;-27
2023/06/04 01:23:58;;;;;;;2.33;0.80;;;;;;;14.91;53.39;102308.03;5057679;27;96569;-28
2023/06/04 01:26:26;;;;;;;1.13;0.60;;;;;;;14.89;53.35;102309.97;5076196;27;96715;-28
2023/06/04 01:28:52;;;;;;;1.27;0.57;;;;;;;14.83;53.67;102309.34;5057329;27;101365;-28
2023/06/04 01:31:22;;;;;;;0.55;0.40;;;;;;;14.85;53.87;102314.72;5057229;27;100852;-27
2023/06/04 01:34:00;;;;;;;1.50;0.70;;;;;;;14.78;54.12;102300.53;5074193;27;96915;-27
2023/06/04 01:36:25;;;;;;;0.93;0.60;;;;;;;14.76;53.92;102307.94;5057280;27;96841;-28
2023/06/04 01:38:51;;;;;;;1.65;0.75;;;;;;;14.80;53.99;102300.44;5075661;27;97981;-27
2023/06/04 01:41:17;;;;;;;1.08;0.80;;;;;;;14.79;53.97;102307.75;5075584;27;97275;-28
2023/06/04 01:43:42;;;;;;;1.05;0.60;;;;;;;14.74;53.72;102298.94;5056616;27;96803;-28
2023/06/04 01:46:08;;;;;;;1.55;0.75;;;;;;;14.71;53.38;102301.84;5075437;27;96871;-27
2023/06/04 01:48:33;;;;;;;1.10;0.52;;;;;;;14.72;53.68;102303.59;5075881;27;97548;-27
2023/06/04 01:50:58;;;;;;;1.77;0.50;;;;;;;14.67;54.27;102302.09;5075470;27;97783;-27
2023/06/04 01:53:24;;;;;;;0.80;0.45;;;;;;;14.56;53.79;102298.13;5075472;27;96878;-29
2023/06/04 01:55:50;;;;;;;1.48;0.68;;;;;;;14.58;53.63;102300.75;5075415;27;96842;-27
2023/06/04 01:58:22;;;;;;;1.33;0.57;;;;;;;14.48;53.71;102286.72;5075118;27;99657;-28
2023/06/04 02:00:49;;;;;;;1.63;0.70;;;;;;;14.47;53.91;102289.50;5075775;27;97285;-27
2023/06/04 02:03:15;;;;;;;0.52;0.50;;;;;;;14.50;53.28;102286.66;5056917;27;96589;-27
2023/06/04 02:05:40;;;;;;;1.38;0.60;;;;;;;14.50;53.73;102297.56;5056539;27;96871;-27
2023/06/04 02:08:06;;;;;;;0.77;0.52;;;;;;;14.50;53.86;102292.09;5074711;27;97861;-27
2023/06/04 02:10:32;;;;;;;3.03;0.68;;;;;;;14.46;53.66;102291.38;5075194;27;97797;-27
2023/06/04 02:13:04;;;;;;;0.95;0.45;;;;;;;14.40;53.75;102292.59;5056824;27;96574;-28
2023/06/04 02:15:31;;;;;;;1.15;0.55;;;;;;;14.38;54.01;102290.91;5075352;27;96532;-27
2023/06/04 02:17:59;;;;;;;0.38;0.28;;;;;;;14.43;54.00;102294.28;5056416;27;100990;-28
2023/06/04 02:20:26;;;;;;;1.13;0.40;;;;;;;14.38;53.89;102291.78;5074473;27;98440;-27
2023/06/04 02:22:51;;;;;;;1.50;0.75;;;;;;;14.34;53.82;102276.56;5056446;27;97195;-27
2023/06/04 02:25:17;;;;;;;1.70;0.85;;;;;;;14.24;54.35;102283.50;5075468;27;96849;-27
2023/06/04 02:27:42;;;;;;;1.60;0.50;;;;;;;14.26;53.77;102291.59;5074154;27;97894;-29
2023/06/04 02:30:08;;;;;;;0.95;0.60;;;;;;;14.25;53.78;102290.69;5075034;27;97307;-28
2023/06/04 02:32:35;;;;;;;0.85;0.50;;;;;;;14.27;54.11;102299.66;5074359;27;97026;-27
2023/06/04 02:35:01;;;;;;;0.60;0.47;;;;;;;14.21;54.12;102300.88;5056326;27;96959;-27
2023/06/04 02:37:26;;;;;;;1.00;0.38;;;;;;;14.16;53.75;102286.63;5073952;27;99331;-27
2023/06/04 02:39:51;;;;;;;0.98;0.52;;;;;;;14.13;54.15;102299.53;5074347;27;109214;-27
2023/06/04 02:42:17;;;;;;;2.53;0.50;;;;;;;14.14;54.10;102304.91;5074020;27;117639;-27
2023/06/04 02:44:42;;;;;;;0.60;0.50;;;;;;;14.04;53.60;102300.91;5074316;27;107578;-28
2023/06/04 02:47:07;;;;;;;0.32;0.25;;;;;;;14.12;54.17;102311.41;5074625;27;98168;-27
2023/06/04 02:49:33;;;;;;;2.00;0.80;;;;;;;14.14;53.64;102295.84;5074920;27;97757;-27
2023/06/04 02:51:58;;;;;;;0.98;0.68;;;;;;;14.07;53.61;102310.78;5074307;27;97129;-27
2023/06/04 02:54:23;;;;;;;0.73;0.30;;;;;;;14.04;54.05;102300.91;5074627;27;96807;-28
2023/06/04 02:56:49;;;;;;;0.80;0.50;;;;;;;14.05;53.77;102293.63;5073715;27;99279;-27
2023/06/04 02:59:15;;;;;;;2.83;0.60;;;;;;;14.03;53.87;102288.22;5074356;27;97735;-28
2023/06/04 03:01:40;;;;;;;0.85;0.70;;;;;;;14.06;54.08;102298.09;5074638;27;96455;-27
2023/06/04 03:04:09;;;;;;;2.55;0.70;;;;;;;14.01;53.83;102304.69;5072577;27;96810;-28
2023/06/04 03:06:37;;;;;;;1.05;0.47;;;;;;;13.90;54.75;102292.59;5072759;27;99642;-28
2023/06/04 03:09:04;;;;;;;1.48;0.52;;;;;;;13.95;54.02;102304.13;5055635;27;100981;-27
2023/06/04 03:11:29;;;;;;;0.50;0.45;;;;;;;13.90;53.92;102293.47;5055778;27;96824;-27
2023/06/04 03:13:54;;;;;;;1.70;0.57;;;;;;;13.91;54.25;102291.59;5074558;27;96853;-27
2023/06/04 03:16:20;;;;;;;0.80;0.50;;;;;;;13.92;53.89;102299.72;5073966;27;99483;-28
2023/06/04 03:18:46;;;;;;;0.38;0.28;;;;;;;13.88;54.35;102298.09;5073246;27;99205;-28
2023/06/04 03:21:11;;;;;;;1.15;0.32;;;;;;;13.91;53.82;102300.66;5074075;27;96503;-28
2023/06/04 03:23:37;;;;;;;0.68;0.45;;;;;;;13.86;54.18;102291.84;5073864;27;96800;-28
2023/06/04 03:26:03;;;;;;;1.63;0.82;;;;;;;13.84;53.74;102296.50;5055224;27;101479;-28
2023/06/04 03:28:31;;;;;;;1.08;0.50;;;;;;;13.84;54.31;102299.22;5055343;27;100925;-28
2023/06/04 03:30:57;;;;;;;1.10;0.50;;;;;;;13.81;54.05;102304.81;5055528;27;96575;-28
2023/06/04 03:33:23;;;;;;;0.88;0.55;;;;;;;13.77;54.78;102298.66;5073777;27;96845;-27
2023/06/04 03:35:50;;;;;;;4.38;0.60;;;;;;;13.74;55.06;102296.09;5073039;27;98695;-28
2023/06/04 03:38:15;;;;;;;0.60;0.40;;;;;;;13.72;54.39;102299.84;5074297;27;97888;-27
2023/06/04 03:40:41;;;;;;;1.35;0.50;;;;;;;13.65;54.19;102280.22;5072459;27;96762;-27
2023/06/04 03:43:06;;;;;;;0.35;0.30;;;;;;;13.67;54.56;102291.03;5073828;27;97178;-27
2023/06/04 03:45:32;;;;;;;0.93;0.60;;;;;;;13.63;54.18;102287.59;5072907;27;99747;-28
2023/06/04 03:47:57;;;;;;;0.75;0.38;;;;;;;13.66;54.33;102294.72;5073485;27;97240;-27
2023/06/04 03:50:22;;;;;;;1.45;0.73;;;;;;;13.67;54.19;102304.66;5073890;27;96774;-27
2023/06/04 03:52:48;;;;;;;0.88;0.57;;;;;;;13.67;54.67;102301.94;5073992;27;96407;-27
2023/06/04 03:55:14;;;;;;;1.60;0.70;;;;;;;13.60;54.35;102296.78;5055001;27;100798;-27
2023/06/04 03:57:39;;;;;;;0.60;0.40;;;;;;;13.64;54.37;102311.16;5073490;27;97896;-27
2023/06/04 04:00:10;;;;;;;1.67;0.55;;;;;;;13.59;54.04;102302.34;5073311;27;96691;-27
2023/06/04 04:02:35;;;;;;;0.73;0.25;;;;;;;13.58;54.18;102297.84;5055291;27;96890;-28
2023/06/04 04:05:01;;;;;;;1.02;0.60;;;;;;;13.58;54.26;102306.00;5072808;27;115059;-27
2023/06/04 04:07:26;;;;;;;1.67;0.40;;;;;;;13.60;54.46;102307.69;5073393;27;97750;-27
2023/06/04 04:09:52;;;;;;;0.65;0.40;;;;;;;13.53;54.26;102297.19;5072602;27;96478;-28
2023/06/04 04:12:17;;;;;;;0.93;0.68;;;;;;;13.53;54.25;102308.94;5073480;27;96835;-27
2023/06/04 04:14:43;;;;;;;1.45;0.50;;;;;;;13.52;54.36;102309.06;5073271;27;97941;-27
2023/06/04 04:17:08;;;;;;;0.52;0.38;;;;;;;13.50;54.98;102309.13;5072910;27;99256;-28
2023/06/04 04:19:33;;;;;;;2.00;0.75;;;;;;;13.53;54.90;102308.94;5073194;27;96463;-27
2023/06/04 04:21:59;;;;;;;0.90;0.50;;;;;;;13.53;54.64;102316.25;5073459;27;96959;-27
2023/06/04 04:24:25;;;;;;;0.60;0.30;;;;;;;13.52;54.48;102301.75;5072865;27;103675;-27
2023/06/04 04:26:54;;;;;;;0.75;0.43;;;;;;;13.51;54.67;102308.16;5054706;27;101223;-27
2023/06/04 04:29:22;;;;;;;1.00;0.43;;;;;;;13.55;54.28;102315.22;5073143;27;96599;-27
2023/06/04 04:31:52;;;;;;;1.98;0.55;;;;;;;13.51;54.60;102310.00;5054419;27;97045;-27
2023/06/04 04:34:20;;;;;;;1.27;0.68;;;;;;;13.50;54.36;102314.56;5072554;27;97965;-27
2023/06/04 04:36:51;;;;;;;0.65;0.50;;;;;;;13.38;54.56;102301.56;5053977;27;99647;-27
2023/06/04 04:39:17;;;;;;;2.83;0.70;;;;;;;13.44;54.30;102317.59;5072938;27;96790;-28
2023/06/04 04:41:42;;;;;;;1.02;0.52;;;;;;;13.40;54.83;102301.50;5072813;27;96886;-27
2023/06/04 04:44:08;;;;;;;0.68;0.50;;;;;;;13.45;54.39;102302.16;5072364;27;107244;-28
2023/06/04 04:46:33;;;;;;;1.50;0.50;;;;;;;13.45;54.55;102299.44;5072438;27;99107;-27
2023/06/04 04:48:58;;;;;;;1.02;0.57;;;;;;;13.43;54.51;102296.78;5072892;27;96517;-27
2023/06/04 04:51:24;;;;;;;0.85;0.45;;;;;;;13.41;54.66;102300.53;5074533;27;96950;-28
2023/06/04 04:53:49;;;;;;;1.42;0.60;;;;;;;13.42;54.57;102303.19;5075604;27;114835;-27
2023/06/04 04:56:14;;;;;;;1.35;0.52;;;;;;;13.45;54.55;102300.31;5076138;27;108331;-27
2023/06/04 04:58:40;;;;;;;0.70;0.50;;;;;;;13.44;54.72;102294.94;5075899;27;96741;-27
2023/06/04 05:01:05;;;;;;;0.75;0.50;;;;;;;13.48;54.69;102300.16;5076521;27;96810;-28
2023/06/04 05:03:31;;;;;;;0.60;0.35;;;;;;;13.49;54.67;102304.66;5076424;27;97458;-28
2023/06/04 05:05:56;;;;;;;1.05;0.55;;;;;;;13.53;54.68;102303.50;5076283;27;97782;-27
2023/06/04 05:08:21;;;;;;;1.90;0.70;;;;;;;13.56;54.49;102303.38;5075907;27;116277;-28
2023/06/04 05:10:46;;;;;;;0.95;0.30;;;;;;;13.54;54.57;102298.97;5076152;27;100931;-27
2023/06/04 05:13:12;;;;;;;0.60;0.60;;;;;;;13.49;54.64;102301.00;5076019;27;97241;-28
2023/06/04 05:15:39;;;;;;;1.27;0.50;;;;;;;13.55;54.65;102307.03;5076407;27;98025;-27
2023/06/04 05:18:05;;;;;;;1.13;0.65;;;;;;;13.55;54.98;102307.03;5057485;27;96588;-28
2023/06/04 05:20:30;;;;;;;6.45;0.52;;;;;;;13.63;55.08;102317.53;5076053;27;96776;-27
2023/06/04 05:22:56;;;;;;;0.80;0.50;;;;;;;13.64;54.57;102321.16;5075464;27;97936;-28
2023/06/04 05:25:21;;;;;;;1.00;0.60;;;;;;;13.68;54.58;102311.84;5075554;27;99298;-28
2023/06/04 05:27:49;;;;;;;0.85;0.47;;;;;;;13.75;54.98;102316.03;5076139;27;96774;-28
2023/06/04 05:30:15;;;;;;;2.03;0.50;;;;;;;13.79;54.67;102317.63;5057433;27;96855;-27
2023/06/04 05:32:40;;;;;;;1.20;0.47;;;;;;;13.84;54.78;102317.41;5075298;27;99726;-28
2023/06/04 05:35:07;;;;;;;1.80;0.63;;;;;;;13.86;54.67;102313.63;5075921;27;97753;-27
2023/06/04 05:37:34;;;;;;;2.15;0.63;;;;;;;13.94;54.80;102324.13;5056708;27;96925;-27
2023/06/04 05:39:59;;;;;;;1.65;0.40;;;;;;;13.97;54.31;102316.69;5075930;27;96708;-27
2023/06/04 05:42:25;;;;;;;0.68;0.47;;;;;;;14.05;54.33;102324.47;5075364;27;97966;-28
2023/06/04 05:44:50;;;;;;;2.42;0.70;;;;;;;14.13;54.52;102319.47;5075421;27;99211;-27
2023/06/04 05:47:19;;;;;;;4.57;0.93;;;;;;;14.17;54.23;102314.75;5074978;27;100734;-28
2023/06/04 05:49:44;;;;;;;0.40;0.38;;;;;;;14.30;54.02;102321.34;5057192;27;96739;-28
2023/06/04 05:52:10;;;;;;;0.55;0.40;;;;;;;14.41;54.01;102321.59;5075530;27;97993;-28
2023/06/04 05:54:37;;;;;;;1.17;0.45;;;;;;;14.49;54.38;102325.75;5075247;27;99329;-27
2023/06/04 05:57:03;;;;;;;0.95;0.80;;;;;;;14.52;54.03;102321.03;5056773;27;96639;-27
2023/06/04 05:59:29;;;;;;;2.60;0.38;;;;;;;14.57;53.73;102318.97;5075303;27;96874;-27
2023/06/04 06:01:54;;;;;;;1.45;0.75;;;;;;;14.70;53.33;102330.06;5056723;27;100760;-27
2023/06/04 06:04:20;;;;;;;1.75;0.82;;;;;;;14.82;53.24;102323.94;5074606;27;97734;-27
2023/06/04 06:06:48;;;;;;;0.57;0.50;;;;;;;14.94;53.19;102327.81;5075015;27;96631;-27
2023/06/04 06:09:14;;;;;;;0.77;0.43;;;;;;;14.94;53.19;102316.91;5075196;27;96867;-28
2023/06/04 06:11:40;;;;;;;1.05;0.57;;;;;;;15.05;53.02;102328.09;5055855;27;101124;-28
2023/06/04 06:14:05;;;;;;;1.10;0.55;;;;;;;15.02;53.13;102320.09;5075116;27;97747;-27
2023/06/04 06:16:32;;;;;;;0.90;0.40;;;;;;;15.18;52.64;102327.41;5075305;27;96779;-27
2023/06/04 06:18:57;;;;;;;2.17;0.80;;;;;;;15.23;52.78;102331.66;5075043;27;96854;-28
2023/06/04 06:21:23;;;;;;;2.20;0.88;;;;;;;15.38;52.61;102332.59;5075121;27;97985;-27
2023/06/04 06:23:48;;;;;;;1.13;0.60;;;;;;;15.43;52.41;102330.47;5074947;27;97828;-28
2023/06/04 06:26:13;;;;;;;1.15;0.68;;;;;;;15.54;52.34;102331.69;5074405;27;110932;-27
2023/06/04 06:28:39;;;;;;;2.35;0.73;;;;;;;15.47;52.24;102325.75;5075501;27;96714;-27
2023/06/04 06:31:04;;;;;;;4.70;0.63;;;;;;;15.59;52.16;102321.38;5080587;27;97996;-27
2023/06/04 06:33:31;;;;;;;0.93;0.50;;;;;;;15.71;52.12;102335.25;5094303;27;99065;-27
2023/06/04 06:35:56;;;;;;;5.10;1.02;;;;;;;15.87;51.99;102337.94;5094629;27;96770;-27
2023/06/04 06:38:22;;;;;;;0.68;0.40;;;;;;;16.02;51.67;102333.41;5095369;27;96698;-27
2023/06/04 06:40:47;;;;;;;2.13;0.75;;;;;;;16.06;51.51;102331.34;5094913;27;98910;-29
2023/06/04 06:43:12;;;;;;;1.52;0.70;;;;;;;16.24;51.52;102340.28;5095035;27;99338;-27
2023/06/04 06:45:38;;;;;;;1.35;0.85;;;;;;;16.24;51.12;102338.41;5094573;27;96734;-27
2023/06/04 06:48:04;;;;;;;1.42;0.50;;;;;;;16.33;51.09;102332.38;5095455;27;97091;-27
2023/06/04 06:50:30;;;;;;;1.58;0.90;;;;;;;16.46;50.90;102327.03;5076315;27;101120;-27
2023/06/04 06:52:55;;;;;;;2.22;0.60;;;;;;;16.63;51.15;102338.75;5076712;27;100790;-27
2023/06/04 06:55:21;;;;;;;1.10;0.65;;;;;;;16.63;50.63;102342.38;5092448;27;105880;-27
2023/06/04 06:57:46;;;;;;;1.85;0.75;;;;;;;16.71;50.80;102336.44;5094299;27;96616;-30
2023/06/04 07:00:12;;;;;;;1.08;0.65;;;;;;;16.85;50.87;102344.69;5075485;27;101002;-27
2023/06/04 07:02:37;;;;;;;1.70;0.60;;;;;;;16.89;51.20;102346.22;5094668;27;100331;-27
2023/06/04 07:05:03;;;;;;;2.13;1.10;;;;;;;17.00;51.47;102341.94;5095062;27;96633;-28
2023/06/04 07:07:28;;;;;;;1.55;0.77;;;;;;;17.14;51.17;102355.59;5094995;27;96812;-28
2023/06/04 07:09:53;;;;;;;0.88;0.70;;;;;;;17.24;50.47;102354.00;5094527;27;99762;-27
2023/06/04 07:12:19;;;;;;;0.55;0.40;;;;;;;17.28;51.09;102349.19;5094568;27;97802;-27
2023/06/04 07:14:45;;;;;;;1.15;0.50;;;;;;;17.40;50.86;102352.00;5094463;27;97570;-28
2023/06/04 07:17:10;;;;;;;1.33;0.75;;;;;;;17.48;50.97;102353.38;5095054;27;96763;-27
2023/06/04 07:19:40;;;;;;;4.22;1.13;;;;;;;17.60;51.01;102353.41;5094432;27;98177;-27
2023/06/04 07:22:06;;;;;;;1.63;0.80;;;;;;;17.69;50.56;102348.31;5094682;27;100144;-28
2023/06/04 07:24:31;;;;;;;2.17;1.45;;;;;;;17.77;50.72;102354.13;5092869;27;97110;-28
2023/06/04 07:26:57;;;;;;;0.80;0.57;;;;;;;17.82;50.68;102341.03;5093233;27;97827;-28
2023/06/04 07:29:22;;;;;;;1.58;0.75;;;;;;;17.86;49.85;102339.84;5094206;27;99494;-27
2023/06/04 07:31:47;;;;;;;0.90;0.60;;;;;;;18.01;50.03;102346.13;5094052;27;99431;-27
2023/06/04 07:34:13;;;;;;;1.00;0.60;;;;;;;18.10;49.68;102344.63;5094977;27;96445;-27
2023/06/04 07:36:38;;;;;;;1.25;0.73;;;;;;;18.24;49.66;102348.16;5093950;27;96789;-27
2023/06/04 07:39:05;;;;;;;1.00;0.57;;;;;;;18.34;49.71;102344.75;5094536;27;98479;-28
2023/06/04 07:41:30;;;;;;;1.55;0.65;;;;;;;18.45;49.36;102350.38;5094139;27;106623;-28
2023/06/04 07:43:55;;;;;;;4.10;0.75;;;;;;;18.61;49.05;102348.25;5094446;27;96661;-27
2023/06/04 07:46:21;;;;;;;3.15;1.17;;;;;;;18.64;48.57;102337.09;5094113;27;96848;-27
2023/06/04 07:48:46;;;;;;;3.25;0.80;;;;;;;18.71;48.89;102344.88;5093475;27;99400;-27
2023/06/04 07:51:13;;;;;;;3.00;0.60;;;;;;;18.84;47.99;102345.78;5092356;27;99637;-27
2023/06/04 07:53:38;;;;;;;3.40;0.50;;;;;;;18.98;48.68;102353.88;5072830;27;96809;-27
2023/06/04 07:56:04;;;;;;;1.20;0.68;;;;;;;19.10;47.95;102343.88;5092721;27;96939;-28
2023/06/04 07:58:29;;;;;;;1.65;0.65;;;;;;;19.17;47.70;102338.81;5093834;27;99251;-27
2023/06/04 08:00:55;;;;;;;1.90;0.50;;;;;;;19.26;47.89;102344.50;5093843;27;99262;-27
2023/06/04 08:03:21;;;;;;;2.95;0.80;;;;;;;19.44;47.26;102352.34;5094333;27;96421;-27
2023/06/04 08:05:46;;;;;;;1.75;0.50;;;;;;;19.48;46.65;102345.63;5075589;27;96858;-27
2023/06/04 08:08:12;;;;;;;1.13;0.60;;;;;;;19.56;46.98;102342.28;5093977;27;97945;-27
2023/06/04 08:10:39;;;;;;;1.42;0.68;;;;;;;19.65;46.59;102344.34;5092731;27;99068;-27
2023/06/04 08:13:05;;;;;;;1.52;0.63;;;;;;;19.73;46.89;102345.56;5074718;27;97159;-28
2023/06/04 08:15:30;;;;;;;2.30;0.85;;;;;;;19.83;46.61;102345.72;5093766;27;99354;-27
2023/06/04 08:17:56;;;;;;;1.00;0.55;;;;;;;19.94;45.52;102347.63;5093882;27;98090;-27
2023/06/04 08:20:22;;;;;;;3.35;0.80;;;;;;;19.96;45.61;102342.88;5093737;27;97759;-27
2023/06/04 08:22:47;;;;;;;2.40;0.88;;;;;;;20.10;45.17;102355.56;5093574;27;96648;-30
2023/06/04 08:25:13;;;;;;;1.98;0.80;;;;;;;20.22;45.54;102356.50;5092576;27;96818;-27
2023/06/04 08:27:39;;;;;;;0.35;0.32;;;;;;;20.35;45.51;102354.50;5092986;27;99641;-27
2023/06/04 08:30:05;;;;;;;0.70;0.40;;;;;;;20.37;44.95;102361.66;5092441;27;97275;-27
2023/06/04 08:32:31;;;;;;;1.30;0.50;;;;;;;20.49;44.75;102351.53;5074197;27;96781;-27
2023/06/04 08:34:56;;;;;;;1.42;0.73;;;;;;;20.58;44.65;102353.59;5088131;27;97593;-27
2023/06/04 08:37:24;;;;;;;1.38;0.60;;;;;;;20.72;44.78;102354.38;5092728;27;97914;-29
2023/06/04 08:39:49;;;;;;;1.75;0.80;;;;;;;20.83;44.11;102350.72;5091555;27;97840;-27
2023/06/04 08:42:22;;;;;;;1.23;0.43;;;;;;;20.92;43.90;102341.72;5093048;27;96818;-28
2023/06/04 08:44:52;;;;;;;1.45;0.50;;;;;;;21.11;43.75;102361.25;5072093;27;98279;-27
2023/06/04 08:47:19;;;;;;;2.05;0.65;;;;;;;21.24;43.52;102366.63;5085760;27;99341;-28
2023/06/04 08:49:49;;;;;;;0.98;0.47;;;;;;;21.24;42.69;102358.38;5074042;27;99963;-27
2023/06/04 08:52:15;;;;;;;1.90;0.75;;;;;;;21.23;42.77;102348.34;5065952;27;97083;-33
2023/06/04 08:54:41;;;;;;;1.73;0.50;;;;;;;21.29;41.63;102356.09;5091146;27;96800;-29
2023/06/04 08:57:08;;;;;;;1.85;0.45;;;;;;;21.32;42.62;102361.34;5056657;27;100793;-29
2023/06/04 08:59:36;;;;;;;0.57;0.47;;;;;;;21.38;41.59;102363.63;5068635;27;99435;-29
2023/06/04 09:02:03;;;;;;;0.47;0.40;;;;;;;21.52;41.99;102362.47;5107635;27;96952;-27
2023/06/04 09:04:29;;;;;;;1.27;0.80;;;;;;;21.70;41.83;102364.69;5073267;27;97116;-28
2023/06/04 09:06:54;;;;;;;1.48;0.70;;;;;;;21.76;42.54;102372.44;5091881;27;99827;-29
2023/06/04 09:09:23;;;;;;;2.85;0.60;;;;;;;21.83;41.65;102357.09;5091936;27;98754;-30
2023/06/04 09:11:54;;;;;;;0.85;0.63;;;;;;;21.90;40.37;102362.97;5083102;27;97200;-28
2023/06/04 09:14:21;;;;;;;1.48;0.77;;;;;;;21.97;41.56;102366.97;5053950;27;97042;-28
2023/06/04 09:16:58;;;;;;;2.00;0.60;;;;;;;22.11;41.14;102360.25;5070429;27;101034;-28
2023/06/04 09:19:24;;;;;;;4.07;0.90;;;;;;;22.05;40.55;102346.00;5093286;27;98023;-27
2023/06/04 09:22:02;;;;;;;0.35;0.30;;;;;;;22.08;40.50;102366.94;5093378;27;96639;-27
2023/06/04 09:24:49;;;;;;;1.48;0.50;;;;;;;22.20;40.16;102353.94;5090661;27;97238;-28
2023/06/04 09:27:22;;;;;;;1.67;0.30;;;;;;;22.21;40.61;102356.59;5073636;27;100877;-28
2023/06/04 09:29:53;;;;;;;3.08;0.57;;;;;;;22.36;41.00;102370.09;5092266;27;99137;-27
2023/06/04 09:32:28;;;;;;;2.03;0.70;;;;;;;22.51;40.96;102363.22;5053698;27;96648;-28
2023/06/04 09:34:57;;;;;;;3.40;0.55;;;;;;;22.64;40.95;102374.94;5080991;27;96830;-27
2023/06/04 09:37:22;;;;;;;2.97;0.75;;;;;;;22.73;40.73;102366.81;5092867;27;99621;-28
2023/06/04 09:39:57;;;;;;;1.35;0.80;;;;;;;22.88;41.13;102380.16;5076733;27;100779;-28
2023/06/04 09:42:23;;;;;;;1.00;0.70;;;;;;;22.79;41.03;102374.56;5096229;27;96515;-28
2023/06/04 09:44:48;;;;;;;2.13;0.73;;;;;;;22.89;40.20;102370.84;5078127;27;96653;-27
2023/06/04 09:47:15;;;;;;;2.78;0.82;;;;;;;22.93;40.46;102365.03;5095247;27;99479;-28
2023/06/04 09:49:42;;;;;;;4.25;0.82;;;;;;;23.15;39.58;102367.63;5077432;27;100996;-27
2023/06/04 09:52:07;;;;;;;4.45;0.90;;;;;;;23.27;39.65;102357.34;5076980;27;96546;-27
2023/06/04 09:54:37;;;;;;;2.47;0.73;;;;;;;23.29;39.78;102361.72;5095666;27;96867;-28
2023/06/04 09:57:05;;;;;;;3.83;0.68;;;;;;;23.36;39.51;102369.44;5075357;27;99484;-28
2023/06/04 09:59:37;;;;;;;1.98;0.40;;;;;;;23.34;39.06;102364.06;5090073;27;98778;-30
2023/06/04 10:02:04;;;;;;;1.58;0.70;;;;;;;23.44;39.06;102362.19;5093953;27;97109;-29
2023/06/04 10:04:32;;;;;;;2.42;0.80;;;;;;;23.58;38.72;102371.13;5075749;27;96974;-34
2023/06/04 10:06:58;;;;;;;3.60;0.68;;;;;;;23.61;38.57;102370.81;5075595;27;101063;-27
2023/06/04 10:09:25;;;;;;;2.65;0.85;;;;;;;23.61;39.76;102371.69;5074988;27;100839;-28
2023/06/04 10:11:56;;;;;;;1.90;1.08;;;;;;;23.77;39.33;102362.88;5074680;27;97031;-31
2023/06/04 10:14:25;;;;;;;1.10;0.60;;;;;;;23.74;38.58;102369.56;5074726;27;96705;-30
2023/06/04 10:16:52;;;;;;;1.33;0.40;;;;;;;23.88;38.59;102370.16;5073907;27;100922;-31
2023/06/04 10:19:18;;;;;;;1.00;0.55;;;;;;;24.05;38.83;102369.44;5074179;27;100964;-29
2023/06/04 10:21:44;;;;;;;2.00;0.90;;;;;;;24.11;38.74;102356.91;5074217;27;97136;-28
2023/06/04 10:24:10;;;;;;;1.25;0.63;;;;;;;24.21;38.12;102352.22;5092870;27;96823;-31
2023/06/04 10:26:37;;;;;;;1.58;0.60;;;;;;;24.23;37.46;102350.19;5075835;27;100843;-34
2023/06/04 10:29:03;;;;;;;1.95;0.70;;;;;;;24.14;38.03;102354.69;5075657;27;100833;-28
2023/06/04 10:31:29;;;;;;;3.50;0.88;;;;;;;24.14;38.11;102354.69;5075494;27;97193;-28
2023/06/04 10:33:56;;;;;;;4.20;1.15;;;;;;;24.20;38.65;102369.88;5077004;27;96836;-28
2023/06/04 10:36:24;;;;;;;1.08;0.60;;;;;;;24.25;37.31;102355.59;5074969;27;101205;-28
2023/06/04 10:38:52;;;;;;;1.80;0.68;;;;;;;24.34;38.08;102368.56;5076674;27;99295;-28
2023/06/04 10:41:19;;;;;;;1.73;0.70;;;;;;;24.43;38.11;102359.38;5074982;27;97355;-27
2023/06/04 10:43:49;;;;;;;1.50;0.80;;;;;;;24.47;37.21;102366.38;5074620;27;97024;-28
2023/06/04 10:46:16;;;;;;;1.85;0.50;;;;;;;24.52;35.92;102368.69;5074659;27;97971;-27
2023/06/04 10:48:48;;;;;;;2.60;0.57;;;;;;;24.43;34.16;102361.22;5073569;27;99161;-27
2023/06/04 10:51:15;;;;;;;0.80;0.50;;;;;;;24.40;35.24;102365.19;5074643;27;96601;-27
2023/06/04 10:53:40;;;;;;;2.03;0.50;;;;;;;24.41;36.19;102355.88;5062283;27;97000;-27
2023/06/04 10:56:06;;;;;;;1.52;0.52;;;;;;;24.59;36.03;102364.28;5094850;27;99317;-27
2023/06/04 10:58:34;;;;;;;4.13;0.93;;;;;;;24.47;36.66;102357.19;5095446;27;97794;-27
2023/06/04 11:01:00;;;;;;;2.38;0.80;;;;;;;24.49;36.79;102357.91;5093749;27;98585;-28
2023/06/04 11:03:36;;;;;;;1.08;0.60;;;;;;;24.67;36.69;102360.78;5092977;27;96841;-27
2023/06/04 11:06:01;;;;;;;1.40;0.80;;;;;;;24.80;36.86;102362.19;5075808;27;100894;-27
2023/06/04 11:08:29;;;;;;;1.38;0.75;;;;;;;24.86;36.81;102362.59;5095021;27;97594;-27
2023/06/04 11:10:55;;;;;;;2.58;0.73;;;;;;;25.04;36.65;102359.94;5074851;27;96909;-29
2023/06/04 11:13:27;;;;;;;1.98;0.77;;;;;;;24.92;35.36;102354.56;5076045;27;96902;-27
2023/06/04 11:15:52;;;;;;;;;;;;;;;24.91;34.82;102360.28;5093676;27;98072;-29
2023/06/04 11:18:19;;;;;;;1.03;0.63;;;;;;;24.92;36.36;102353.69;5094689;27;99605;-27
2023/06/04 11:20:46;;;;;;;1.45;0.70;;;;;;;25.04;35.82;102346.94;5075821;27;96838;-27